Time;durP1;ratioP1;P1;durP2;ratioP2;P2;SDS_P1;SDS_P2;PMS_P1;PMS_P2;Temp;Humidity;BMP_temperature;BMP_pressure;BME280_temperature;BME280_humidity;BME280_pressure;Samples;Min_cycle;Max_cycle;Signal;HPM_P1;HPM_P2
2022/01/31 00:02:07;;;;;;;10.80;3.03;;;4.50;1.00;;;;;;5056868;28;20190;-72
2022/01/31 00:04:33;;;;;;;23.17;3.33;;;4.50;1.00;;;;;;5074302;28;20409;-71
2022/01/31 00:06:59;;;;;;;12.07;4.20;;;4.50;1.00;;;;;;5054971;28;20784;-66
2022/01/31 00:09:28;;;;;;;14.33;3.53;;;4.50;1.00;;;;;;5056286;28;20186;-66
2022/01/31 00:12:07;;;;;;;7.17;2.90;;;4.50;1.00;;;;;;5073305;28;20954;-68
2022/01/31 00:14:44;;;;;;;7.13;3.20;;;4.50;1.00;;;;;;5069382;28;20436;-67
2022/01/31 00:17:12;;;;;;;12.83;3.23;;;4.50;1.00;;;;;;5054484;28;20933;-72
2022/01/31 00:22:46;;;;;;;15.60;4.70;;;4.40;1.00;;;;;;5074619;28;20514;-72
2022/01/31 00:25:12;;;;;;;5.20;2.90;;;4.40;1.00;;;;;;5073788;28;20413;-72
2022/01/31 00:27:41;;;;;;;13.17;3.10;;;4.40;1.00;;;;;;5072600;28;20425;-72
2022/01/31 00:30:07;;;;;;;5.33;2.90;;;4.30;1.00;;;;;;5072333;28;20416;-66
2022/01/31 00:32:35;;;;;;;9.33;3.83;;;4.30;1.00;;;;;;5073778;28;20401;-67
2022/01/31 00:35:01;;;;;;;15.53;4.93;;;4.30;1.00;;;;;;5065854;28;20421;-66
2022/01/31 00:37:27;;;;;;;13.80;3.77;;;4.30;1.00;;;;;;5054243;28;20457;-66
2022/01/31 00:39:53;;;;;;;14.10;3.53;;;4.30;1.00;;;;;;5068330;28;20420;-68
2022/01/31 00:42:24;;;;;;;11.47;3.17;;;4.30;1.00;;;;;;5073780;28;20510;-66
2022/01/31 00:44:56;;;;;;;21.57;4.40;;;4.20;1.00;;;;;;5073464;28;20571;-72
2022/01/31 00:47:25;;;;;;;5.27;3.23;;;4.20;1.00;;;;;;5074104;28;20406;-69
2022/01/31 00:49:55;;;;;;;14.30;4.03;;;4.10;1.00;;;;;;5058802;28;20422;-68
2022/01/31 00:52:21;;;;;;;16.93;4.60;;;4.20;1.00;;;;;;5054062;28;20407;-73
2022/01/31 00:54:47;;;;;;;15.10;5.07;;;4.10;1.00;;;;;;5066186;28;20478;-72
2022/01/31 00:57:13;;;;;;;11.23;3.77;;;4.10;1.00;;;;;;5072442;28;20529;-72
2022/01/31 00:59:39;;;;;;;13.80;4.00;;;4.10;1.00;;;;;;5071976;28;20417;-71
2022/01/31 01:02:26;;;;;;;19.80;3.47;;;4.10;1.00;;;;;;5073494;28;20866;-72
2022/01/31 01:04:54;;;;;;;12.57;4.23;;;4.10;1.00;;;;;;5061339;28;20421;-72
2022/01/31 01:11:06;;;;;;;11.13;3.80;;;4.00;1.00;;;;;;5070201;28;20422;-72
2022/01/31 01:13:32;;;;;;;16.80;3.83;;;4.00;1.00;;;;;;5065315;28;20448;-66
2022/01/31 01:18:45;;;;;;;9.93;3.07;;;4.00;2.80;;;;;;5052942;28;20185;-70
2022/01/31 01:21:29;;;;;;;15.73;3.77;;;3.90;13.00;;;;;;5073500;28;20428;-72
2022/01/31 01:23:55;;;;;;;12.13;4.40;;;3.90;21.80;;;;;;5067184;28;20422;-67
2022/01/31 01:26:21;;;;;;;15.17;4.03;;;4.00;27.80;;;;;;5059018;28;20448;-70
2022/01/31 01:28:49;;;;;;;9.37;3.13;;;4.10;27.90;;;;;;5070854;28;20424;-66
2022/01/31 01:31:18;;;;;;;14.90;3.33;;;4.10;27.90;;;;;;5073358;28;20432;-72
2022/01/31 01:33:44;;;;;;;15.10;3.97;;;4.10;25.70;;;;;;5070785;28;20465;-72
2022/01/31 01:36:10;;;;;;;9.07;3.30;;;4.10;27.00;;;;;;5053141;28;20827;-66
2022/01/31 01:38:36;;;;;;;9.40;3.47;;;4.00;27.70;;;;;;5039095;28;20447;-68
2022/01/31 01:41:03;;;;;;;7.10;3.33;;;4.00;27.80;;;;;;5072932;28;20440;-72
2022/01/31 01:43:30;;;;;;;8.90;2.70;;;3.90;23.20;;;;;;5072012;28;20424;-67
2022/01/31 01:46:00;;;;;;;9.63;4.40;;;3.90;27.70;;;;;;5072971;28;20413;-72
2022/01/31 01:48:26;;;;;;;19.80;3.70;;;3.90;29.30;;;;;;5070959;28;20403;-73
2022/01/31 01:50:53;;;;;;;8.93;3.93;;;3.80;27.60;;;;;;5052156;28;20482;-67
2022/01/31 01:53:19;;;;;;;10.63;3.70;;;3.80;37.00;;;;;;5052917;28;20496;-69
2022/01/31 01:55:46;;;;;;;4.43;3.47;;;3.80;38.00;;;;;;5072951;28;21059;-66
2022/01/31 01:58:16;;;;;;;8.37;3.90;;;3.80;43.90;;;;;;5070046;28;20412;-72
2022/01/31 02:00:50;;;;;;;16.17;3.93;;;3.90;48.60;;;;;;5070631;28;20843;-68
2022/01/31 02:03:20;;;;;;;13.03;4.10;;;3.90;48.00;;;;;;5072819;28;20440;-67
2022/01/31 02:05:49;;;;;;;12.67;3.60;;;3.90;42.60;;;;;;5053628;28;20977;-66
2022/01/31 02:08:18;;;;;;;15.27;4.90;;;3.90;35.80;;;;;;5061214;28;20922;-72
2022/01/31 02:10:45;;;;;;;12.70;3.97;;;3.90;39.60;;;;;;5071300;28;20450;-71
2022/01/31 02:13:11;;;;;;;21.50;4.93;;;3.90;29.60;;;;;;5054818;28;20470;-72
2022/01/31 02:15:39;;;;;;;19.03;5.00;;;3.90;27.70;;;;;;5067963;28;20515;-71
2022/01/31 02:18:06;;;;;;;14.60;3.67;;;3.90;27.70;;;;;;5054342;28;20502;-72
2022/01/31 02:20:40;;;;;;;18.43;5.00;;;3.80;27.60;;;;;;5071926;28;20427;-68
2022/01/31 02:23:11;;;;;;;14.83;5.57;;;3.80;31.90;;;;;;5071823;28;20426;-71
2022/01/31 02:26:02;;;;;;;13.40;4.03;;;3.90;32.00;;;;;;5072709;28;20487;-67
2022/01/31 02:28:34;;;;;;;8.23;3.80;;;3.90;36.50;;;;;;5065270;28;20766;-72
2022/01/31 02:31:01;;;;;;;3.63;2.93;;;3.90;27.70;;;;;;5072609;28;20577;-69
2022/01/31 02:33:28;;;;;;;16.93;5.40;;;3.80;27.70;;;;;;5071892;28;20555;-72
2022/01/31 02:35:58;;;;;;;15.97;3.73;;;3.80;27.70;;;;;;5075209;28;20548;-69
2022/01/31 02:38:24;;;;;;;11.60;3.03;;;3.80;27.70;;;;;;5056207;28;20528;-66
2022/01/31 02:40:51;;;;;;;11.97;4.23;;;3.70;32.00;;;;;;5072335;28;20467;-70
2022/01/31 02:43:31;;;;;;;12.07;5.47;;;3.70;50.30;;;;;;5076255;28;20507;-67
2022/01/31 02:46:01;;;;;;;19.63;4.17;;;3.70;63.70;;;;;;5075579;28;20424;-71
2022/01/31 02:48:36;;;;;;;20.73;4.20;;;3.80;76.50;;;;;;5076398;28;20877;-72
2022/01/31 02:51:08;;;;;;;19.20;3.40;;;3.80;76.50;;;;;;5075202;28;20438;-71
2022/01/31 02:53:46;;;;;;;14.27;4.47;;;3.70;76.40;;;;;;5076217;28;20493;-72
2022/01/31 02:56:15;;;;;;;6.00;4.37;;;3.70;81.50;;;;;;5064626;28;20460;-71
2022/01/31 02:58:41;;;;;;;9.53;4.17;;;3.50;86.90;;;;;;5066350;28;20429;-67
2022/01/31 03:01:07;;;;;;;10.03;3.70;;;3.40;94.20;;;;;;5056049;28;20429;-68
2022/01/31 03:03:33;;;;;;;8.97;3.13;;;3.40;99.90;;;;;;5063485;28;20451;-67
2022/01/31 03:06:02;;;;;;;11.23;4.20;;;3.40;99.90;;;;;;5075831;28;20531;-67
2022/01/31 03:08:32;;;;;;;10.50;2.60;;;3.50;99.90;;;;;;5075296;28;20433;-67
2022/01/31 03:10:58;;;;;;;14.63;4.43;;;3.60;99.90;;;;;;5075957;28;20520;-67
2022/01/31 03:13:24;;;;;;;14.37;3.50;;;3.60;99.90;;;;;;5074409;28;20420;-67
2022/01/31 03:15:52;;;;;;;18.77;4.57;;;3.60;99.90;;;;;;5075583;28;20459;-71
2022/01/31 03:18:21;;;;;;;9.10;4.13;;;3.60;99.90;;;;;;5075076;28;20166;-72
2022/01/31 03:20:47;;;;;;;7.17;3.30;;;3.60;99.90;;;;;;5074765;28;20510;-67
2022/01/31 03:23:13;;;;;;;7.33;3.93;;;3.60;99.90;;;;;;5075101;28;20890;-68
2022/01/31 03:25:40;;;;;;;8.00;3.57;;;3.60;99.90;;;;;;5075695;28;20427;-67
2022/01/31 03:28:18;;;;;;;31.00;4.30;;;3.60;99.90;;;;;;5074794;28;20413;-67
2022/01/31 03:30:44;;;;;;;18.83;4.10;;;3.60;99.90;;;;;;5074673;28;20416;-67
2022/01/31 03:33:11;;;;;;;19.10;4.23;;;3.60;99.90;;;;;;5074176;28;20409;-72
2022/01/31 03:38:58;;;;;;;13.37;4.73;;;3.70;99.90;;;;;;5060939;28;20404;-67
2022/01/31 03:41:25;;;;;;;9.60;3.00;;;3.60;99.90;;;;;;5075258;28;20438;-67
2022/01/31 03:43:51;;;;;;;16.53;3.90;;;3.50;99.90;;;;;;5074587;28;20458;-72
2022/01/31 03:46:33;;;;;;;17.73;4.40;;;3.40;99.90;;;;;;5074421;28;20429;-67
2022/01/31 03:49:54;;;;;;;14.77;2.90;;;3.40;99.90;;;;;;5073531;28;20489;-68
2022/01/31 03:55:44;;;;;;;9.07;3.23;;;3.30;99.90;;;;;;5057273;28;20431;-71
2022/01/31 03:58:10;;;;;;;9.43;4.07;;;3.20;99.90;;;;;;5073050;28;20431;-67
2022/01/31 04:00:36;;;;;;;5.10;2.80;;;3.10;99.90;;;;;;5073871;28;20432;-70
2022/01/31 04:03:03;;;;;;;11.73;3.53;;;3.10;99.90;;;;;;5075045;28;20405;-72
2022/01/31 04:05:29;;;;;;;4.93;3.33;;;3.20;99.90;;;;;;5073968;28;20417;-72
2022/01/31 04:07:55;;;;;;;11.20;4.77;;;3.20;99.90;;;;;;5073591;28;20495;-72
2022/01/31 04:10:20;;;;;;;8.47;2.67;;;3.10;99.90;;;;;;5055256;28;20870;-67
2022/01/31 04:13:08;;;;;;;10.63;3.47;;;3.10;99.90;;;;;;5054813;28;20409;-68
2022/01/31 04:15:36;;;;;;;12.53;3.83;;;3.00;99.90;;;;;;5074483;28;20456;-67
2022/01/31 04:18:03;;;;;;;7.40;3.40;;;3.00;99.90;;;;;;5073991;28;20459;-71
2022/01/31 04:20:29;;;;;;;12.10;3.40;;;2.90;99.90;;;;;;5073755;28;20438;-67
2022/01/31 04:23:00;;;;;;;8.13;3.30;;;2.90;99.90;;;;;;5074623;28;20920;-72
2022/01/31 04:25:43;;;;;;;7.33;3.20;;;2.90;99.90;;;;;;5054360;28;20471;-71
2022/01/31 04:30:57;;;;;;;17.43;3.10;;;2.80;99.90;;;;;;5066839;28;20472;-72
2022/01/31 04:33:28;;;;;;;7.33;3.93;;;2.80;99.90;;;;;;5073562;28;20416;-67
2022/01/31 04:35:55;;;;;;;9.03;3.43;;;2.80;99.90;;;;;;5074324;28;20462;-69
2022/01/31 04:38:36;;;;;;;10.40;3.37;;;2.80;99.90;;;;;;5065109;28;20425;-72
2022/01/31 04:45:01;;;;;;;4.67;3.60;;;2.90;99.90;;;;;;5069820;28;20485;-69
2022/01/31 04:47:39;;;;;;;15.17;2.97;;;2.80;99.90;;;;;;5073478;28;20416;-72
2022/01/31 04:54:20;;;;;;;;;;;;;;;;;;;;;
2022/01/31 04:56:47;;;;;;;10.90;3.67;;;2.80;99.90;;;;;;4984297;28;21041;-68
2022/01/31 04:59:13;;;;;;;8.37;2.90;;;2.90;99.90;;;;;;5071159;28;20516;-71
2022/01/31 05:01:42;;;;;;;6.50;3.27;;;2.90;99.90;;;;;;5073872;28;20550;-73
2022/01/31 05:04:08;;;;;;;8.13;3.93;;;2.90;99.90;;;;;;5072329;28;20444;-68
2022/01/31 05:06:39;;;;;;;8.23;3.93;;;2.80;99.90;;;;;;5073739;28;20448;-68
2022/01/31 05:09:05;;;;;;;8.90;2.80;;;2.80;99.90;;;;;;5053981;28;20662;-68
2022/01/31 05:11:32;;;;;;;4.60;3.13;;;2.70;99.90;;;;;;5073599;28;20474;-67
2022/01/31 05:14:03;;;;;;;3.80;3.50;;;2.70;99.90;;;;;;5060002;28;20425;-74
2022/01/31 05:16:29;;;;;;;4.00;3.10;;;2.80;99.90;;;;;;5072941;28;20575;-68
2022/01/31 05:18:58;;;;;;;8.47;3.50;;;2.70;99.90;;;;;;5071907;28;20543;-73
2022/01/31 05:21:47;;;;;;;6.63;3.60;;;2.60;99.90;;;;;;5073409;28;20424;-73
2022/01/31 05:24:13;;;;;;;9.77;4.03;;;2.60;99.90;;;;;;5054284;28;20504;-74
2022/01/31 05:26:50;;;;;;;11.77;4.63;;;2.50;99.90;;;;;;5053370;28;20489;-73
2022/01/31 05:29:17;;;;;;;13.23;3.60;;;2.50;99.90;;;;;;5069635;28;21176;-73
2022/01/31 05:31:59;;;;;;;7.07;4.40;;;2.50;99.90;;;;;;5073378;28;20507;-74
2022/01/31 05:34:25;;;;;;;8.27;3.50;;;2.50;99.90;;;;;;5072718;28;20424;-69
2022/01/31 05:36:54;;;;;;;5.93;3.10;;;2.50;99.90;;;;;;5073152;28;20545;-68
2022/01/31 05:39:26;;;;;;;8.10;4.40;;;2.50;99.90;;;;;;5055059;28;20417;-74
2022/01/31 05:41:53;;;;;;;4.20;3.73;;;2.50;99.90;;;;;;5062734;28;20444;-72
2022/01/31 05:44:20;;;;;;;6.30;3.90;;;2.50;99.90;;;;;;5071617;28;20420;-74
2022/01/31 05:46:46;;;;;;;11.70;5.13;;;2.50;99.90;;;;;;5072827;28;20523;-69
2022/01/31 05:49:12;;;;;;;7.77;4.27;;;2.50;99.90;;;;;;5058270;28;20429;-70
2022/01/31 05:51:45;;;;;;;7.13;4.67;;;2.50;99.90;;;;;;5035114;28;20441;-68
2022/01/31 05:54:11;;;;;;;7.90;4.70;;;2.50;99.90;;;;;;5066492;28;20428;-69
2022/01/31 05:56:40;;;;;;;9.63;4.70;;;2.50;99.90;;;;;;5072851;28;20460;-73
2022/01/31 05:59:06;;;;;;;10.40;3.97;;;2.50;99.90;;;;;;5061341;28;20418;-68
2022/01/31 06:05:09;;;;;;;6.17;2.47;;;2.50;99.90;;;;;;5029832;28;20418;-69
2022/01/31 06:07:55;;;;;;;7.97;3.60;;;2.50;99.90;;;;;;5030846;28;20414;-70
2022/01/31 06:10:23;;;;;;;9.17;3.83;;;2.50;99.90;;;;;;5028467;28;20532;-74
2022/01/31 06:12:51;;;;;;;5.00;3.00;;;2.60;99.90;;;;;;5030649;28;20567;-74
2022/01/31 06:15:25;;;;;;;3.83;3.53;;;2.60;99.90;;;;;;5033040;28;21000;-70
2022/01/31 06:17:51;;;;;;;6.87;4.47;;;2.60;99.90;;;;;;5072385;28;20467;-74
2022/01/31 06:20:19;;;;;;;8.33;4.37;;;2.60;99.90;;;;;;5071693;28;20427;-69
2022/01/31 06:22:55;;;;;;;10.73;4.77;;;2.60;99.90;;;;;;5035982;28;20449;-70
2022/01/31 06:28:43;;;;;;;7.93;4.60;;;2.70;99.90;;;;;;5012768;28;20422;-74
2022/01/31 06:31:09;;;;;;;6.87;4.47;;;2.70;99.90;;;;;;5068626;28;20440;-69
2022/01/31 06:33:38;;;;;;;6.37;5.37;;;2.70;99.90;;;;;;5072691;28;20427;-70
2022/01/31 06:36:10;;;;;;;7.30;5.00;;;2.70;99.90;;;;;;5049748;28;20461;-70
2022/01/31 06:38:39;;;;;;;13.63;5.30;;;2.70;99.90;;;;;;5061688;28;20495;-76
2022/01/31 06:44:56;;;;;;;6.90;4.00;;;2.70;99.90;;;;;;5008043;28;20465;-77
2022/01/31 06:48:13;;;;;;;6.67;4.53;;;2.70;99.90;;;;;;5071086;28;20420;-76
2022/01/31 06:50:39;;;;;;;13.85;4.38;;;2.70;99.90;;;;;;5070610;28;20475;-75
2022/01/31 06:53:08;;;;;;;5.77;5.03;;;2.70;99.90;;;;;;5072277;28;20178;-74
2022/01/31 06:55:34;;;;;;;5.87;4.57;;;2.70;99.90;;;;;;5071096;28;20416;-74
2022/01/31 06:58:04;;;;;;;10.33;4.53;;;2.70;99.90;;;;;;5070446;28;20471;-74
2022/01/31 07:00:33;;;;;;;12.37;5.00;;;2.80;99.90;;;;;;5070652;28;20444;-75
2022/01/31 07:03:02;;;;;;;13.90;4.93;;;2.80;99.90;;;;;;5068682;28;20517;-69
2022/01/31 07:05:54;;;;;;;9.40;4.40;;;2.70;99.90;;;;;;5072250;28;20421;-69
2022/01/31 07:08:36;;;;;;;11.97;5.70;;;2.80;99.90;;;;;;5051034;28;20436;-75
2022/01/31 07:11:02;;;;;;;4.33;3.77;;;2.70;99.90;;;;;;5071109;28;20527;-73
2022/01/31 07:13:38;;;;;;;19.40;5.20;;;2.80;99.90;;;;;;5071255;28;20466;-69
2022/01/31 07:16:05;;;;;;;9.13;4.70;;;2.80;99.90;;;;;;5071275;28;20447;-75
2022/01/31 07:18:44;;;;;;;9.60;5.27;;;2.80;99.90;;;;;;5071435;28;20409;-73
2022/01/31 07:21:13;;;;;;;11.90;5.03;;;2.80;99.90;;;;;;5070523;28;20866;-70
2022/01/31 07:26:48;;;;;;;6.60;4.30;;;2.90;99.90;;;;;;4993517;28;20431;-75
2022/01/31 07:29:15;;;;;;;8.80;3.63;;;2.80;99.90;;;;;;5071079;28;20439;-75
2022/01/31 07:31:45;;;;;;;13.97;4.20;;;2.90;99.90;;;;;;5072902;28;20455;-70
2022/01/31 07:34:14;;;;;;;7.43;4.30;;;2.80;99.90;;;;;;5067913;28;20427;-75
2022/01/31 07:36:41;;;;;;;4.43;4.10;;;2.90;99.90;;;;;;5074531;28;20509;-70
2022/01/31 07:39:07;;;;;;;5.00;4.53;;;2.90;99.90;;;;;;5074829;28;20401;-70
2022/01/31 07:41:34;;;;;;;12.97;5.03;;;2.90;99.90;;;;;;5069936;28;20460;-75
2022/01/31 07:44:03;;;;;;;7.40;3.90;;;2.80;99.90;;;;;;5074953;28;20913;-70
2022/01/31 07:46:32;;;;;;;8.87;4.37;;;2.90;99.90;;;;;;5073540;28;20456;-69
2022/01/31 07:48:58;;;;;;;8.53;5.10;;;2.90;99.90;;;;;;5074251;28;20475;-75
2022/01/31 07:51:24;;;;;;;10.37;4.23;;;2.90;99.90;;;;;;5073719;28;20445;-70
2022/01/31 07:53:59;;;;;;;8.53;4.40;;;2.90;99.90;;;;;;5075221;28;20397;-70
2022/01/31 07:56:25;;;;;;;15.73;4.23;;;2.90;99.90;;;;;;5074209;28;20456;-75
2022/01/31 07:58:51;;;;;;;9.03;4.17;;;2.90;99.90;;;;;;5073542;28;20417;-70
2022/01/31 08:01:18;;;;;;;16.23;5.27;;;2.90;99.90;;;;;;5073790;28;20936;-70
2022/01/31 08:03:52;;;;;;;11.03;5.00;;;2.90;99.90;;;;;;5074551;28;20417;-71
2022/01/31 08:06:18;;;;;;;11.47;4.70;;;2.90;99.90;;;;;;5073905;28;20420;-74
2022/01/31 08:12:25;;;;;;;15.03;5.47;;;2.90;99.90;;;;;;4953292;28;20437;-75
2022/01/31 08:15:01;;;;;;;8.30;5.53;;;2.90;99.90;;;;;;4953226;28;20998;-75
2022/01/31 08:20:52;;;;;;;6.40;4.50;;;2.90;99.90;;;;;;5011919;28;20450;-71
2022/01/31 08:23:21;;;;;;;13.03;4.50;;;3.00;99.90;;;;;;5012193;28;20430;-75
2022/01/31 08:25:51;;;;;;;14.13;4.07;;;3.00;99.90;;;;;;5063016;28;20416;-75
2022/01/31 08:28:33;;;;;;;14.57;4.70;;;3.00;99.90;;;;;;5072838;28;20947;-70
2022/01/31 08:38:22;;;;;;;14.23;6.23;;;2.90;99.90;;;;;;4955408;28;20871;-75
2022/01/31 08:40:50;;;;;;;11.00;4.60;;;2.90;99.90;;;;;;4953348;28;20441;-75
2022/01/31 08:43:20;;;;;;;9.17;4.90;;;2.90;99.90;;;;;;4953557;29;20423;-72
2022/01/31 08:45:47;;;;;;;19.27;5.03;;;3.00;99.90;;;;;;5024770;28;20942;-70
2022/01/31 08:48:31;;;;;;;7.73;4.30;;;3.00;99.90;;;;;;5068652;28;20449;-71
2022/01/31 08:50:58;;;;;;;10.00;4.57;;;3.00;99.90;;;;;;5073091;28;20432;-71
2022/01/31 08:53:23;;;;;;;13.57;5.50;;;3.00;99.90;;;;;;5073666;28;20420;-75
2022/01/31 08:55:54;;;;;;;10.03;4.70;;;3.00;99.90;;;;;;5072405;28;20409;-70
2022/01/31 08:58:45;;;;;;;23.90;5.30;;;3.10;99.90;;;;;;5072654;28;20425;-75
2022/01/31 09:01:12;;;;;;;9.53;4.37;;;3.00;99.90;;;;;;5072098;28;20535;-74
2022/01/31 09:03:54;;;;;;;18.23;4.70;;;3.10;99.90;;;;;;5073740;28;20450;-71
2022/01/31 09:06:23;;;;;;;8.30;4.80;;;3.10;99.90;;;;;;5072946;28;20425;-70
2022/01/31 09:08:52;;;;;;;13.27;5.00;;;3.10;99.90;;;;;;5072190;28;20519;-75
2022/01/31 09:11:18;;;;;;;5.73;4.97;;;3.10;99.90;;;;;;5073345;28;20440;-75
2022/01/31 09:13:45;;;;;;;8.53;4.83;;;3.10;99.90;;;;;;5073940;28;20427;-75
2022/01/31 09:16:31;;;;;;;8.30;4.17;;;3.10;99.90;;;;;;5072633;28;20498;-70
2022/01/31 09:18:58;;;;;;;9.07;4.57;;;3.20;99.90;;;;;;5071253;28;20789;-76
2022/01/31 09:21:24;;;;;;;18.90;5.60;;;3.30;99.90;;;;;;5072006;28;20437;-75
2022/01/31 09:23:52;;;;;;;16.43;5.40;;;3.30;99.90;;;;;;5069435;28;20424;-75
2022/01/31 09:26:22;;;;;;;11.53;5.50;;;3.30;99.90;;;;;;5052346;28;20424;-75
2022/01/31 09:28:52;;;;;;;9.60;4.20;;;3.30;99.90;;;;;;5072300;28;20416;-75
2022/01/31 09:31:18;;;;;;;16.23;4.57;;;3.30;99.90;;;;;;5049530;28;20528;-76
2022/01/31 09:33:53;;;;;;;11.13;4.90;;;3.40;99.90;;;;;;5053511;28;20429;-75
2022/01/31 09:36:19;;;;;;;13.03;4.70;;;3.50;99.90;;;;;;5069878;28;20459;-74
2022/01/31 09:38:55;;;;;;;13.90;5.03;;;3.50;99.90;;;;;;5071656;28;20766;-71
2022/01/31 09:41:25;;;;;;;11.67;5.50;;;3.60;99.90;;;;;;5072380;28;20436;-75
2022/01/31 09:44:06;;;;;;;8.83;5.90;;;3.70;99.90;;;;;;5073061;28;20804;-70
2022/01/31 09:47:24;;;;;;;11.77;6.60;;;3.80;99.90;;;;;;5072051;28;20431;-75
2022/01/31 09:49:54;;;;;;;10.30;4.87;;;3.80;99.90;;;;;;5056067;28;20928;-71
2022/01/31 09:52:20;;;;;;;15.70;5.93;;;4.00;99.90;;;;;;5073215;28;20401;-72
2022/01/31 09:54:48;;;;;;;12.57;6.77;;;4.00;99.90;;;;;;5071833;28;20640;-71
2022/01/31 09:57:16;;;;;;;14.40;5.57;;;4.00;99.90;;;;;;5072256;28;20670;-75
2022/01/31 09:59:42;;;;;;;13.10;6.70;;;4.00;99.90;;;;;;5070761;28;20910;-75
2022/01/31 10:02:30;;;;;;;14.63;5.73;;;4.00;99.90;;;;;;5072948;28;20480;-71
2022/01/31 10:04:56;;;;;;;20.83;6.00;;;4.00;99.90;;;;;;5068795;28;20422;-75
2022/01/31 10:07:28;;;;;;;14.50;5.80;;;4.10;99.90;;;;;;5054187;28;20474;-71
2022/01/31 10:10:05;;;;;;;20.80;7.57;;;4.10;99.90;;;;;;5067553;28;20472;-76
2022/01/31 10:18:11;;;;;;;11.00;5.10;;;4.20;99.90;;;;;;5071700;28;20460;-76
2022/01/31 10:20:37;;;;;;;14.20;5.27;;;4.20;99.90;;;;;;5055699;28;20436;-73
2022/01/31 10:23:13;;;;;;;14.13;5.87;;;4.10;99.90;;;;;;5061379;28;20511;-73
2022/01/31 10:25:43;;;;;;;12.10;7.53;;;4.00;99.90;;;;;;5072208;28;20519;-71
2022/01/31 10:28:13;;;;;;;17.30;4.83;;;4.00;99.90;;;;;;5072398;28;20413;-71
2022/01/31 10:30:41;;;;;;;23.77;6.00;;;4.10;99.90;;;;;;5070820;28;20967;-75
2022/01/31 10:33:18;;;;;;;11.33;5.90;;;4.10;99.90;;;;;;5070761;28;20416;-75
2022/01/31 10:35:44;;;;;;;12.30;5.60;;;4.10;99.90;;;;;;5052751;28;20904;-75
2022/01/31 10:38:13;;;;;;;14.57;6.70;;;4.00;99.90;;;;;;5052399;28;20428;-75
2022/01/31 11:06:48;;;;;;;13.73;7.77;;;4.00;99.90;;;;;;4990782;28;20421;-75
2022/01/31 11:09:25;;;;;;;12.43;6.40;;;3.90;99.90;;;;;;5055152;28;20397;-75
2022/01/31 11:11:51;;;;;;;14.50;7.47;;;3.90;99.90;;;;;;5066361;28;20459;-75
2022/01/31 11:14:20;;;;;;;13.53;6.33;;;3.90;99.90;;;;;;5075169;28;20412;-75
2022/01/31 11:16:48;;;;;;;14.43;6.40;;;3.80;99.90;;;;;;5075139;28;20450;-75
2022/01/31 11:19:22;;;;;;;17.47;7.13;;;3.80;99.90;;;;;;5074635;28;20412;-71
2022/01/31 11:22:01;;;;;;;17.20;7.03;;;3.80;99.90;;;;;;5074541;28;20483;-71
2022/01/31 11:24:31;;;;;;;10.10;7.07;;;3.90;99.90;;;;;;5075502;28;20425;-75
2022/01/31 11:27:10;;;;;;;12.43;6.03;;;3.90;99.90;;;;;;5074677;28;20480;-71
2022/01/31 11:29:41;;;;;;;11.80;7.37;;;3.90;99.90;;;;;;5074438;28;20424;-75
2022/01/31 11:32:08;;;;;;;10.17;6.60;;;4.10;99.90;;;;;;5072240;28;20439;-70
2022/01/31 11:34:38;;;;;;;13.40;8.23;;;4.20;99.90;;;;;;5075473;28;20409;-75
2022/01/31 11:43:58;;;;;;;9.30;6.87;;;3.60;99.90;;;;;;5025917;28;20460;-75
2022/01/31 11:46:25;;;;;;;16.67;7.83;;;3.80;99.90;;;;;;5061842;28;20420;-71
2022/01/31 11:48:54;;;;;;;29.27;10.13;;;4.00;99.90;;;;;;5074012;28;21101;-75
2022/01/31 11:51:36;;;;;;;18.40;8.93;;;3.90;99.90;;;;;;5073252;28;21014;-74
2022/01/31 11:54:08;;;;;;;15.30;7.23;;;3.90;99.90;;;;;;5075273;28;20409;-70
2022/01/31 11:57:15;;;;;;;18.33;6.97;;;4.00;99.90;;;;;;5067932;28;20454;-75
2022/01/31 11:59:42;;;;;;;13.73;6.20;;;4.00;99.90;;;;;;5048603;28;20426;-71
2022/01/31 12:02:13;;;;;;;22.00;7.00;;;4.10;99.90;;;;;;5065857;28;20440;-70
2022/01/31 12:04:44;;;;;;;20.60;7.23;;;4.20;99.90;;;;;;5075133;28;20410;-75
2022/01/31 12:07:39;;;;;;;13.60;6.30;;;4.40;99.90;;;;;;5063325;28;20782;-70
2022/01/31 12:10:07;;;;;;;18.00;8.10;;;4.50;99.90;;;;;;5053959;28;20434;-75
2022/01/31 12:12:47;;;;;;;17.70;7.50;;;4.50;99.90;;;;;;5067926;28;20416;-70
2022/01/31 12:18:53;;;;;;;22.93;7.20;;;4.10;99.90;;;;;;5055494;28;20436;-69
2022/01/31 12:24:27;;;;;;;11.27;6.33;;;3.80;99.90;;;;;;5054711;28;20432;-75
2022/01/31 12:27:00;;;;;;;13.47;5.63;;;3.70;99.90;;;;;;5063324;28;20423;-71
2022/01/31 12:29:31;;;;;;;9.60;6.30;;;3.70;99.90;;;;;;5073401;28;20405;-75
2022/01/31 12:32:11;;;;;;;25.10;12.80;;;3.70;99.90;;;;;;5065006;28;20465;-75
2022/01/31 12:34:46;;;;;;;22.10;6.83;;;3.70;99.90;;;;;;5054451;28;20516;-75
2022/01/31 12:37:40;;;;;;;19.73;9.87;;;3.70;99.90;;;;;;5068068;28;20491;-75
2022/01/31 12:40:15;;;;;;;18.53;10.70;;;3.60;99.90;;;;;;5072651;28;20428;-75
2022/01/31 12:45:42;;;;;;;20.53;7.50;;;3.80;99.90;;;;;;5053919;28;20390;-71
2022/01/31 12:48:14;;;;;;;9.53;6.07;;;3.80;99.90;;;;;;5054316;28;20946;-75
2022/01/31 12:50:56;;;;;;;11.70;7.00;;;3.80;99.90;;;;;;5068454;28;20448;-71
2022/01/31 12:53:36;;;;;;;11.40;8.20;;;3.80;99.90;;;;;;5073662;28;20923;-73
2022/01/31 12:56:24;;;;;;;12.90;6.77;;;3.70;99.90;;;;;;5073097;28;20811;-75
2022/01/31 12:58:52;;;;;;;11.77;6.67;;;3.70;99.90;;;;;;5073156;28;20747;-75
2022/01/31 13:01:26;;;;;;;13.77;7.33;;;3.80;99.90;;;;;;5065849;28;20434;-70
2022/01/31 13:03:55;;;;;;;17.30;6.93;;;3.80;99.90;;;;;;5053175;28;20405;-74
2022/01/31 13:06:59;;;;;;;17.13;6.37;;;3.90;99.90;;;;;;5061239;28;20420;-75
2022/01/31 13:09:39;;;;;;;37.00;7.80;;;3.90;99.90;;;;;;5068678;28;20431;-71
2022/01/31 13:12:10;;;;;;;18.40;6.93;;;4.00;99.90;;;;;;5060238;28;20449;-75
2022/01/31 13:15:03;;;;;;;12.70;6.43;;;4.10;99.90;;;;;;5053772;28;20414;-75
2022/01/31 13:17:31;;;;;;;21.37;6.33;;;4.20;99.90;;;;;;5069173;28;20444;-70
2022/01/31 13:20:03;;;;;;;17.10;8.40;;;4.20;99.90;;;;;;5071675;28;20404;-71
2022/01/31 13:22:43;;;;;;;16.27;7.03;;;4.20;99.90;;;;;;5057344;28;20418;-69
2022/01/31 13:25:15;;;;;;;16.07;6.00;;;4.00;99.90;;;;;;5053567;28;20405;-75
2022/01/31 13:34:31;;;;;;;14.60;5.67;;;3.70;99.90;;;;;;5011602;28;20386;-69
2022/01/31 13:36:57;;;;;;;19.33;6.67;;;3.70;99.90;;;;;;5062216;28;20448;-72
2022/01/31 13:39:25;;;;;;;17.30;6.00;;;3.70;99.90;;;;;;5071969;28;20413;-70
2022/01/31 13:41:51;;;;;;;23.63;7.40;;;3.70;99.90;;;;;;5065143;28;20433;-75
2022/01/31 13:44:21;;;;;;;10.57;6.97;;;3.70;99.90;;;;;;5053254;28;20420;-76
2022/01/31 13:46:50;;;;;;;11.90;7.00;;;3.60;99.90;;;;;;5059693;28;20170;-75
2022/01/31 13:49:23;;;;;;;19.10;7.80;;;3.60;99.90;;;;;;5072224;28;20400;-70
2022/01/31 13:51:50;;;;;;;9.77;5.97;;;3.50;99.90;;;;;;5062677;28;20437;-70
2022/01/31 13:54:32;;;;;;;;;;;;;;;;;;;;;
2022/01/31 13:57:00;;;;;;;13.07;7.87;;;3.50;99.90;;;;;;5050510;28;20471;-70
2022/01/31 13:59:29;;;;;;;6.40;4.83;;;3.40;99.90;;;;;;5072021;28;20404;-75
2022/01/31 14:02:11;;;;;;;20.87;5.70;;;3.40;99.90;;;;;;5059525;28;20499;-70
2022/01/31 14:04:40;;;;;;;14.93;5.20;;;3.40;99.90;;;;;;5052911;28;20405;-74
2022/01/31 14:07:22;;;;;;;8.70;4.83;;;3.50;99.90;;;;;;5067056;28;20429;-75
2022/01/31 14:09:47;;;;;;;15.60;5.07;;;3.50;99.90;;;;;;5072172;28;20400;-70
2022/01/31 14:12:18;;;;;;;8.87;5.47;;;3.50;99.90;;;;;;5057521;28;20491;-75
2022/01/31 14:14:46;;;;;;;19.20;5.63;;;3.50;99.90;;;;;;5054042;28;20415;-74
2022/01/31 14:17:11;;;;;;;16.23;7.33;;;3.60;99.90;;;;;;5067910;28;20456;-70
2022/01/31 14:19:39;;;;;;;12.90;5.60;;;3.60;99.90;;;;;;5070283;28;20755;-69
2022/01/31 14:22:08;;;;;;;6.10;4.70;;;3.70;99.90;;;;;;5063515;28;20498;-75
2022/01/31 14:24:33;;;;;;;15.27;4.20;;;3.70;99.90;;;;;;5053686;28;20421;-70
2022/01/31 14:27:03;;;;;;;10.03;5.23;;;3.70;99.90;;;;;;5072407;28;20471;-70
2022/01/31 14:29:31;;;;;;;10.50;4.90;;;3.70;99.90;;;;;;5070814;28;20946;-75
2022/01/31 14:31:58;;;;;;;11.03;6.00;;;3.70;99.90;;;;;;5074635;28;20470;-69
2022/01/31 14:34:26;;;;;;;8.07;6.87;;;3.70;99.90;;;;;;5076778;28;20754;-70
2022/01/31 14:37:04;;;;;;;11.03;5.60;;;3.70;99.90;;;;;;5073974;28;20461;-72
2022/01/31 14:48:10;;;;;;;5.17;4.40;;;3.80;99.90;;;;;;5018447;28;20430;-71
2022/01/31 14:50:41;;;;;;;19.43;5.37;;;3.80;99.90;;;;;;5058356;28;20463;-69
2022/01/31 14:53:14;;;;;;;13.63;5.00;;;3.80;99.90;;;;;;5075436;28;20421;-70
2022/01/31 14:55:44;;;;;;;11.77;5.60;;;3.80;99.90;;;;;;5075518;28;21002;-74
2022/01/31 14:58:27;;;;;;;13.23;4.57;;;3.70;99.90;;;;;;5072758;28;20459;-69
2022/01/31 15:00:53;;;;;;;7.03;4.03;;;3.70;99.90;;;;;;5073335;28;20489;-71
2022/01/31 15:03:22;;;;;;;12.20;5.40;;;3.70;99.90;;;;;;5073333;28;20793;-75
2022/01/31 15:05:48;;;;;;;15.60;5.60;;;3.70;99.90;;;;;;5075836;28;20426;-74
2022/01/31 15:08:14;;;;;;;11.50;5.77;;;3.60;99.90;;;;;;5075011;28;21035;-71
2022/01/31 15:10:55;;;;;;;15.00;5.27;;;3.60;99.90;;;;;;5074920;28;20415;-75
2022/01/31 15:13:31;;;;;;;13.97;6.33;;;3.60;99.90;;;;;;5074427;28;20416;-75